createdAt,value
2017-07-16T00:00:06.513Z,78.80
2017-07-16T00:02:34.923Z,78.70
2017-07-16T00:05:02.482Z,78.30
2017-07-16T00:07:30.053Z,78.30
2017-07-16T00:09:58.395Z,77.60
2017-07-16T00:12:25.979Z,77.60
2017-07-16T00:14:53.540Z,77.50
2017-07-16T00:17:21.104Z,76.40
2017-07-16T00:19:48.670Z,77.30
2017-07-16T00:22:16.214Z,76.80
2017-07-16T00:24:43.772Z,76.10
2017-07-16T00:27:11.379Z,77.30
2017-07-16T00:29:39.727Z,76.90
2017-07-16T00:32:07.420Z,77.00
2017-07-16T00:34:35.742Z,76.80
2017-07-16T00:37:03.421Z,76.90
2017-07-16T00:39:32.602Z,77.10
2017-07-16T00:42:00.209Z,77.00
2017-07-16T00:44:27.795Z,77.70
2017-07-16T00:46:56.201Z,78.10
2017-07-16T00:49:23.747Z,77.90
2017-07-16T00:51:51.323Z,79.20
2017-07-16T00:54:18.888Z,79.10
2017-07-16T00:56:46.471Z,78.10
2017-07-16T00:59:14.108Z,78.00
2017-07-16T01:01:41.666Z,78.10
2017-07-16T01:04:09.234Z,78.20
2017-07-16T01:06:36.800Z,80.00
2017-07-16T01:09:04.364Z,79.90
2017-07-16T01:11:31.984Z,79.10
2017-07-16T01:14:00.325Z,79.30
2017-07-16T01:16:27.899Z,78.90
2017-07-16T01:18:55.463Z,79.30
2017-07-16T01:21:23.033Z,81.30
2017-07-16T01:23:50.608Z,79.50
2017-07-16T01:26:18.166Z,79.60
2017-07-16T01:28:45.761Z,81.50
2017-07-16T01:31:13.330Z,80.50
2017-07-16T01:33:40.936Z,80.60
2017-07-16T01:36:08.478Z,80.00
2017-07-16T01:38:36.332Z,80.70
2017-07-16T01:41:03.895Z,80.20
2017-07-16T01:43:31.440Z,81.80
2017-07-16T01:45:59.023Z,81.30
2017-07-16T01:48:26.583Z,82.20
2017-07-16T01:50:54.192Z,82.20
2017-07-16T01:53:21.746Z,82.20
2017-07-16T01:55:49.297Z,83.80
2017-07-16T01:58:16.866Z,83.10
2017-07-16T02:00:44.593Z,83.70
2017-07-16T02:03:12.167Z,83.60
2017-07-16T02:05:39.771Z,83.60
2017-07-16T02:08:07.328Z,84.70
2017-07-16T02:10:35.819Z,84.40
2017-07-16T02:13:04.133Z,85.50
2017-07-16T02:15:31.859Z,85.30
2017-07-16T02:17:59.443Z,85.50
2017-07-16T02:20:27.764Z,86.20
2017-07-16T02:22:55.337Z,86.20
2017-07-16T02:25:22.907Z,86.10
2017-07-16T02:27:50.463Z,87.00
2017-07-16T02:30:18.039Z,88.40
2017-07-16T02:32:45.613Z,87.50
2017-07-16T02:35:13.268Z,89.60
2017-07-16T02:37:40.846Z,89.40
2017-07-16T02:40:09.178Z,90.10
2017-07-16T02:42:36.739Z,90.10
2017-07-16T02:45:04.330Z,90.70
2017-07-16T02:47:31.878Z,90.70
2017-07-16T02:49:59.446Z,91.50
2017-07-16T02:52:27.002Z,91.20
2017-07-16T02:54:54.579Z,91.10
2017-07-16T02:57:22.139Z,92.10
2017-07-16T02:59:49.787Z,91.50
2017-07-16T03:02:17.364Z,91.20
2017-07-16T03:04:44.940Z,91.70
2017-07-16T03:07:12.493Z,91.40
2017-07-16T03:09:40.069Z,91.30
2017-07-16T03:12:08.390Z,92.30
2017-07-16T03:14:35.963Z,92.10
2017-07-16T03:17:03.524Z,92.50
2017-07-16T03:19:31.083Z,91.60
2017-07-16T03:21:58.661Z,91.40
2017-07-16T03:24:26.228Z,92.00
2017-07-16T03:26:53.782Z,92.70
2017-07-16T03:29:21.386Z,92.50
2017-07-16T03:31:49.758Z,92.80
2017-07-16T03:34:17.348Z,92.80
2017-07-16T03:36:44.914Z,92.80
2017-07-16T03:39:12.481Z,93.10
2017-07-16T03:41:40.361Z,93.00
2017-07-16T03:44:07.926Z,93.00
2017-07-16T03:46:35.482Z,93.30
2017-07-16T03:49:03.051Z,93.30
2017-07-16T03:51:30.607Z,92.50
2017-07-16T03:53:58.207Z,92.70
2017-07-16T03:56:25.772Z,93.10
2017-07-16T03:58:53.369Z,93.00
2017-07-16T04:01:22.174Z,93.20
2017-07-16T04:03:49.745Z,93.20
2017-07-16T04:06:17.332Z,93.80
2017-07-16T04:08:44.898Z,93.70
2017-07-16T04:11:12.462Z,93.40
2017-07-16T04:13:40.036Z,93.10
2017-07-16T04:16:07.619Z,93.30
2017-07-16T04:18:35.974Z,93.40
2017-07-16T04:21:03.518Z,93.40
2017-07-16T04:23:31.101Z,93.90
2017-07-16T04:25:58.680Z,93.90
2017-07-16T04:28:27.003Z,94.60
2017-07-16T04:30:54.575Z,94.60
2017-07-16T04:33:22.141Z,94.70
2017-07-16T04:35:49.717Z,95.80
2017-07-16T04:38:17.268Z,94.80
2017-07-16T04:40:44.851Z,95.30
2017-07-16T04:43:12.439Z,95.20
2017-07-16T04:45:39.987Z,95.40
2017-07-16T04:48:07.574Z,94.90
2017-07-16T04:50:35.139Z,94.90
2017-07-16T04:53:02.719Z,94.90
2017-07-16T04:55:30.291Z,94.60
2017-07-16T04:57:57.864Z,94.40
2017-07-16T05:00:25.442Z,94.70
2017-07-16T05:02:53.003Z,94.20
2017-07-16T05:05:20.600Z,94.10
2017-07-16T05:07:48.959Z,94.00
2017-07-16T05:10:17.283Z,94.40
2017-07-16T05:12:45.063Z,94.40
2017-07-16T05:15:12.639Z,94.00
2017-07-16T05:17:40.211Z,94.10
2017-07-16T05:20:07.772Z,94.30
2017-07-16T05:22:35.450Z,94.30
2017-07-16T05:25:03.101Z,94.40
2017-07-16T05:27:30.654Z,94.40
2017-07-16T05:29:58.228Z,94.20
2017-07-16T05:32:26.162Z,94.20
2017-07-16T05:34:53.739Z,94.10
2017-07-16T05:37:21.290Z,94.10
2017-07-16T05:39:48.884Z,94.40
2017-07-16T05:42:16.451Z,94.30
2017-07-16T05:44:44.011Z,94.00
2017-07-16T05:47:11.588Z,94.60
2017-07-16T05:49:39.182Z,94.20
2017-07-16T05:52:06.752Z,94.50
2017-07-16T05:54:34.445Z,94.50
2017-07-16T05:57:02.007Z,94.70
2017-07-16T05:59:29.579Z,94.70
2017-07-16T06:01:57.134Z,94.70
2017-07-16T06:04:24.714Z,95.20
2017-07-16T06:06:52.285Z,95.20
2017-07-16T06:09:20.709Z,97.30
2017-07-16T06:11:48.289Z,97.30
2017-07-16T06:14:15.835Z,98.60
2017-07-16T06:16:43.414Z,99.80
2017-07-16T06:19:11.011Z,99.90
2017-07-16T06:21:39.395Z,99.90
2017-07-16T06:24:07.759Z,99.90
2017-07-16T06:26:35.311Z,99.90
2017-07-16T06:29:02.892Z,99.90
2017-07-16T06:31:31.443Z,99.90
2017-07-16T06:34:00.173Z,99.90
2017-07-16T06:36:28.639Z,99.90
2017-07-16T06:38:56.193Z,99.90
2017-07-16T06:41:23.744Z,99.90
2017-07-16T06:43:51.325Z,99.90
2017-07-16T06:46:18.878Z,99.90
2017-07-16T06:48:46.447Z,99.90
2017-07-16T06:51:14.827Z,99.90
2017-07-16T06:53:42.481Z,99.90
2017-07-16T06:56:10.168Z,99.90
2017-07-16T06:58:38.560Z,99.90
2017-07-16T07:01:06.888Z,99.90
2017-07-16T07:03:34.450Z,99.90
2017-07-16T07:06:02.062Z,99.90
2017-07-16T07:08:30.386Z,99.90
2017-07-16T07:10:57.940Z,99.90
2017-07-16T07:13:25.523Z,99.90
2017-07-16T07:15:53.107Z,99.90
2017-07-16T07:18:20.655Z,99.90
2017-07-16T07:20:48.218Z,99.90
2017-07-16T07:23:15.810Z,99.90
2017-07-16T07:25:44.157Z,99.90
2017-07-16T07:28:11.751Z,99.90
2017-07-16T07:30:39.306Z,99.90
2017-07-16T07:33:07.676Z,99.90
2017-07-16T07:35:35.315Z,99.90
2017-07-16T07:38:03.007Z,99.90
2017-07-16T07:40:30.816Z,99.90
2017-07-16T07:42:58.454Z,99.90
2017-07-16T07:45:26.072Z,99.90
2017-07-16T07:47:54.390Z,99.90
2017-07-16T07:50:21.951Z,99.90
2017-07-16T07:52:49.568Z,99.90
2017-07-16T07:55:17.985Z,99.90
2017-07-16T07:57:45.628Z,99.90
2017-07-16T08:00:13.271Z,99.90
2017-07-16T08:02:41.632Z,99.90
2017-07-16T08:05:09.272Z,99.90
2017-07-16T08:07:36.874Z,99.90
2017-07-16T08:10:04.422Z,99.90
2017-07-16T08:12:32.136Z,99.90
2017-07-16T08:14:59.710Z,99.90
2017-07-16T08:17:27.301Z,99.90
2017-07-16T08:19:54.873Z,99.90
2017-07-16T08:22:23.225Z,99.90
2017-07-16T08:24:50.791Z,99.90
2017-07-16T08:27:19.132Z,99.80
2017-07-16T08:29:46.733Z,99.80
2017-07-16T08:32:15.068Z,99.40
2017-07-16T08:34:42.638Z,99.50
2017-07-16T08:37:10.230Z,98.90
2017-07-16T08:39:38.559Z,98.00
2017-07-16T08:42:06.168Z,97.90
2017-07-16T08:44:33.759Z,98.10
2017-07-16T08:47:01.361Z,98.50
2017-07-16T08:49:28.983Z,98.70
2017-07-16T08:51:56.590Z,97.60
2017-07-16T08:54:24.206Z,98.00
2017-07-16T08:56:52.927Z,97.10
2017-07-16T08:59:20.618Z,97.10
2017-07-16T09:01:48.280Z,98.00
2017-07-16T09:04:16.025Z,98.00
2017-07-16T09:06:43.695Z,97.30
2017-07-16T09:09:11.308Z,98.10
2017-07-16T09:11:39.827Z,98.40
2017-07-16T09:14:07.546Z,98.40
2017-07-16T09:16:35.226Z,97.60
2017-07-16T09:19:02.936Z,97.00
2017-07-16T09:21:30.629Z,97.20
2017-07-16T09:23:58.258Z,96.50
2017-07-16T09:26:26.027Z,96.40
2017-07-16T09:28:53.695Z,96.50
2017-07-16T09:31:23.373Z,95.10
2017-07-16T09:33:51.024Z,94.80
2017-07-16T09:36:18.718Z,94.20
2017-07-16T09:38:46.534Z,93.80
2017-07-16T09:41:14.183Z,92.90
2017-07-16T09:43:41.798Z,92.80
2017-07-16T09:46:09.448Z,93.00
2017-07-16T09:48:37.103Z,93.50
2017-07-16T09:51:05.536Z,92.60
2017-07-16T09:53:33.168Z,92.60
2017-07-16T09:56:00.790Z,92.30
2017-07-16T09:58:28.428Z,92.70
2017-07-16T10:00:56.216Z,91.70
2017-07-16T10:03:24.706Z,92.50
2017-07-16T10:05:52.309Z,92.40
2017-07-16T10:08:19.915Z,92.20
2017-07-16T10:10:47.569Z,92.60
2017-07-16T10:13:15.217Z,92.90
2017-07-16T10:15:42.917Z,92.30
2017-07-16T10:18:10.536Z,91.70
2017-07-16T10:20:38.165Z,92.00
2017-07-16T10:23:05.856Z,91.40
2017-07-16T10:25:33.468Z,91.50
2017-07-16T10:28:01.028Z,91.60
2017-07-16T10:30:28.798Z,91.40
2017-07-16T10:32:56.412Z,90.90
2017-07-16T10:35:24.012Z,91.20
2017-07-16T10:37:51.580Z,90.70
2017-07-16T10:40:19.132Z,90.70
2017-07-16T10:42:46.730Z,91.00
2017-07-16T10:45:14.316Z,91.50
2017-07-16T10:47:42.682Z,91.10
2017-07-16T10:50:11.049Z,91.00
2017-07-16T10:52:38.646Z,90.90
2017-07-16T10:55:06.966Z,90.40
2017-07-16T10:57:34.547Z,90.30
2017-07-16T11:00:02.151Z,90.60
2017-07-16T11:02:30.559Z,90.10
2017-07-16T11:04:58.154Z,90.10
2017-07-16T11:07:25.722Z,89.00
2017-07-16T11:09:53.285Z,88.20
2017-07-16T11:12:20.875Z,89.40
2017-07-16T11:14:49.364Z,89.90
2017-07-16T11:17:17.116Z,89.80
2017-07-16T11:19:44.767Z,89.30
2017-07-16T11:22:12.396Z,88.90
2017-07-16T11:24:39.981Z,88.50
2017-07-16T11:27:07.613Z,87.20
2017-07-16T11:29:35.296Z,87.10
2017-07-16T11:32:02.873Z,85.20
2017-07-16T11:34:30.582Z,84.10
2017-07-16T11:36:58.167Z,83.70
2017-07-16T11:39:25.772Z,85.70
2017-07-16T11:41:53.349Z,82.90
2017-07-16T11:44:21.707Z,85.10
2017-07-16T11:46:49.292Z,85.30
2017-07-16T11:49:17.002Z,83.70
2017-07-16T11:51:44.881Z,84.70
2017-07-16T11:54:12.579Z,85.70
2017-07-16T11:56:40.145Z,85.10
2017-07-16T11:59:07.735Z,83.90
2017-07-16T12:01:36.066Z,81.50
2017-07-16T12:04:03.674Z,81.50
2017-07-16T12:06:32.028Z,79.60
2017-07-16T12:08:59.634Z,79.50
2017-07-16T12:11:27.279Z,74.40
2017-07-16T12:13:55.610Z,74.60
2017-07-16T12:16:23.171Z,74.50
2017-07-16T12:18:50.764Z,71.70
2017-07-16T12:21:18.326Z,73.30
2017-07-16T12:23:45.903Z,71.90
2017-07-16T12:26:14.268Z,65.20
2017-07-16T12:28:41.851Z,65.10
2017-07-16T12:31:10.168Z,64.80
2017-07-16T12:33:37.735Z,64.70
2017-07-16T12:36:05.311Z,66.00
2017-07-16T12:38:32.893Z,65.30
2017-07-16T12:41:00.494Z,67.60
2017-07-16T12:43:28.898Z,67.70
2017-07-16T12:45:56.838Z,67.60
2017-07-16T12:48:25.220Z,67.90
2017-07-16T12:50:53.638Z,68.70
2017-07-16T12:53:21.225Z,68.40
2017-07-16T12:55:48.915Z,70.40
2017-07-16T12:58:16.485Z,71.80
2017-07-16T13:00:44.829Z,68.40
2017-07-16T13:03:12.386Z,67.70
2017-07-16T13:05:40.034Z,67.70
2017-07-16T13:08:07.628Z,72.90
2017-07-16T13:10:35.193Z,70.90
2017-07-16T13:13:02.784Z,71.10
2017-07-16T13:15:31.135Z,69.70
2017-07-16T13:17:58.704Z,69.70
2017-07-16T13:20:26.279Z,70.40
2017-07-16T13:22:53.842Z,72.80
2017-07-16T13:25:21.405Z,73.90
2017-07-16T13:27:49.019Z,75.80
2017-07-16T13:30:16.619Z,77.50
2017-07-16T13:32:44.216Z,79.10
2017-07-16T13:35:11.806Z,78.10
2017-07-16T13:37:39.385Z,80.40
2017-07-16T13:40:06.983Z,79.40
2017-07-16T13:42:34.560Z,79.40
2017-07-16T13:45:02.899Z,81.40
2017-07-16T13:47:30.471Z,81.30
2017-07-16T13:49:58.241Z,81.20
2017-07-16T13:52:25.797Z,81.50
2017-07-16T13:54:53.407Z,82.00
2017-07-16T13:57:20.980Z,82.00
2017-07-16T13:59:48.704Z,82.40
2017-07-16T14:02:16.294Z,82.90
2017-07-16T14:04:44.003Z,81.50
2017-07-16T14:07:11.570Z,80.00
2017-07-16T14:09:39.163Z,77.60
2017-07-16T14:12:06.735Z,79.70
2017-07-16T14:14:35.207Z,81.70
2017-07-16T14:17:02.792Z,81.70
2017-07-16T14:19:30.384Z,81.00
2017-07-16T14:21:57.968Z,83.10
2017-07-16T14:24:25.713Z,81.80
2017-07-16T14:26:53.363Z,81.60
2017-07-16T14:29:20.927Z,82.30
2017-07-16T14:31:48.496Z,82.30
2017-07-16T14:34:16.088Z,81.70
2017-07-16T14:36:43.656Z,81.80
2017-07-16T14:39:11.248Z,82.50
2017-07-16T14:41:39.639Z,82.90
2017-07-16T14:44:08.032Z,83.90
2017-07-16T14:46:35.703Z,83.90
2017-07-16T14:49:03.521Z,84.00
2017-07-16T14:51:31.247Z,84.60
2017-07-16T14:53:58.839Z,84.70
2017-07-16T14:56:26.408Z,85.60
2017-07-16T14:58:54.002Z,85.30
2017-07-16T15:01:22.372Z,86.70
2017-07-16T15:03:49.987Z,85.90
2017-07-16T15:06:17.655Z,86.50
2017-07-16T15:08:47.012Z,87.00
2017-07-16T15:11:14.669Z,86.70
2017-07-16T15:13:42.232Z,87.00
2017-07-16T15:16:09.862Z,86.50
2017-07-16T15:18:37.450Z,87.70
2017-07-16T15:21:05.025Z,87.50
2017-07-16T15:23:32.813Z,88.20
2017-07-16T15:26:00.400Z,87.60
2017-07-16T15:28:28.145Z,87.20
2017-07-16T15:30:56.507Z,88.10
2017-07-16T15:33:24.080Z,88.00
2017-07-16T15:35:51.664Z,89.00
2017-07-16T15:38:19.227Z,88.00
2017-07-16T15:40:46.801Z,87.90
2017-07-16T15:43:14.388Z,86.50
2017-07-16T15:45:41.975Z,86.70
2017-07-16T15:48:09.580Z,86.80
2017-07-16T15:50:37.895Z,86.50
2017-07-16T15:53:05.526Z,86.50
2017-07-16T15:55:33.199Z,86.80
2017-07-16T15:58:00.800Z,87.90
2017-07-16T16:00:28.380Z,87.00
2017-07-16T16:02:55.969Z,86.60
2017-07-16T16:05:23.571Z,86.70
2017-07-16T16:07:51.158Z,87.40
2017-07-16T16:10:18.737Z,86.90
2017-07-16T16:12:46.319Z,86.30
2017-07-16T16:15:14.706Z,86.60
2017-07-16T16:17:43.077Z,87.30
2017-07-16T16:20:11.415Z,86.50
2017-07-16T16:22:39.024Z,86.50
2017-07-16T16:25:07.376Z,87.00
2017-07-16T16:27:34.980Z,87.00
2017-07-16T16:30:02.773Z,87.60
2017-07-16T16:32:30.363Z,86.90
2017-07-16T16:34:57.950Z,86.80
2017-07-16T16:37:26.304Z,86.70
2017-07-16T16:39:53.899Z,86.60
2017-07-16T16:42:22.240Z,86.30
2017-07-16T16:44:49.847Z,86.80
2017-07-16T16:47:17.455Z,86.70
2017-07-16T16:49:45.035Z,86.00
2017-07-16T16:52:13.355Z,87.80
2017-07-16T16:54:40.954Z,87.70
2017-07-16T16:57:08.685Z,87.80
2017-07-16T16:59:36.266Z,87.60
2017-07-16T17:02:03.843Z,88.40
2017-07-16T17:04:31.422Z,89.00
2017-07-16T17:06:59.031Z,90.00
2017-07-16T17:09:26.616Z,89.10
2017-07-16T17:11:54.215Z,88.40
2017-07-16T17:14:21.780Z,88.30
2017-07-16T17:16:50.138Z,88.90
2017-07-16T17:19:17.799Z,88.90
2017-07-16T17:21:45.405Z,88.40
2017-07-16T17:24:13.818Z,87.40
2017-07-16T17:26:41.375Z,87.20
2017-07-16T17:29:09.052Z,87.00
2017-07-16T17:31:36.741Z,86.20
2017-07-16T17:34:04.454Z,86.40
2017-07-16T17:36:32.032Z,85.40
2017-07-16T17:38:59.630Z,84.20
2017-07-16T17:41:27.219Z,84.00
2017-07-16T17:43:55.575Z,85.10
2017-07-16T17:46:23.148Z,85.20
2017-07-16T17:48:50.732Z,84.80
2017-07-16T17:51:19.064Z,86.10
2017-07-16T17:53:46.651Z,86.10
2017-07-16T17:56:14.223Z,87.40
2017-07-16T17:58:42.592Z,88.30
2017-07-16T18:01:10.156Z,88.40
2017-07-16T18:03:37.724Z,88.30
2017-07-16T18:06:05.347Z,87.90
2017-07-16T18:08:32.909Z,87.60
2017-07-16T18:11:00.513Z,88.90
2017-07-16T18:13:28.073Z,88.80
2017-07-16T18:15:55.688Z,88.30
2017-07-16T18:18:23.247Z,88.20
2017-07-16T18:20:50.863Z,88.20
2017-07-16T18:23:18.615Z,87.80
2017-07-16T18:25:46.190Z,89.80
2017-07-16T18:28:13.951Z,89.70
2017-07-16T18:30:41.559Z,90.40
2017-07-16T18:33:09.123Z,90.50
2017-07-16T18:35:36.795Z,90.90
2017-07-16T18:38:04.967Z,90.80
2017-07-16T18:40:32.560Z,91.00
2017-07-16T18:43:01.009Z,90.90
2017-07-16T18:45:28.590Z,90.90
2017-07-16T18:47:56.264Z,91.40
2017-07-16T18:50:23.862Z,91.70
2017-07-16T18:52:51.476Z,91.80
2017-07-16T18:55:19.096Z,92.30
2017-07-16T18:57:46.690Z,92.40
2017-07-16T19:00:15.053Z,92.80
2017-07-16T19:02:42.668Z,92.80
2017-07-16T19:05:10.320Z,93.20
2017-07-16T19:07:37.990Z,93.20
2017-07-16T19:10:05.764Z,94.10
2017-07-16T19:12:33.950Z,93.80
2017-07-16T19:15:01.551Z,94.20
2017-07-16T19:17:29.276Z,94.30
2017-07-16T19:19:56.998Z,94.50
2017-07-16T19:22:25.413Z,95.30
2017-07-16T19:24:53.194Z,95.20
2017-07-16T19:27:21.164Z,95.60
2017-07-16T19:29:48.827Z,96.10
2017-07-16T19:32:16.501Z,96.40
2017-07-16T19:34:47.868Z,96.70
2017-07-16T19:37:15.581Z,97.00
2017-07-16T19:39:44.035Z,97.50
2017-07-16T19:42:11.893Z,97.50
2017-07-16T19:44:39.671Z,97.80
2017-07-16T19:47:07.625Z,97.80
2017-07-16T19:52:10.343Z,97.70
2017-07-16T19:54:38.065Z,97.80
2017-07-16T19:57:05.987Z,97.70
2017-07-16T19:59:33.996Z,97.50
2017-07-16T20:02:02.507Z,97.20
2017-07-16T20:04:30.298Z,97.00
2017-07-16T20:06:58.730Z,96.90
2017-07-16T20:09:26.337Z,96.70
2017-07-16T20:11:53.944Z,96.70
2017-07-16T20:14:21.927Z,96.50
2017-07-16T20:16:49.527Z,96.50
2017-07-16T20:19:17.110Z,96.60
2017-07-16T20:21:44.692Z,96.60
2017-07-16T20:24:12.505Z,96.70
2017-07-16T20:26:40.904Z,96.80
2017-07-16T20:29:08.541Z,96.80
2017-07-16T20:31:36.951Z,97.00
2017-07-16T20:34:05.350Z,97.10
2017-07-16T20:36:32.964Z,97.10
2017-07-16T20:39:00.591Z,97.10
2017-07-16T20:41:28.230Z,97.50
2017-07-16T20:43:56.733Z,97.70
2017-07-16T20:46:24.370Z,97.70
2017-07-16T20:48:52.748Z,98.10
2017-07-16T20:51:21.421Z,98.00
2017-07-16T20:53:49.582Z,98.00
2017-07-16T20:56:31.661Z,98.20
2017-07-16T20:59:02.734Z,98.20
2017-07-16T21:01:31.217Z,98.60
2017-07-16T21:03:59.610Z,98.90
2017-07-16T21:06:28.144Z,98.80
2017-07-16T21:08:55.744Z,98.80
2017-07-16T21:11:23.379Z,98.90
2017-07-16T21:13:51.051Z,98.90
2017-07-16T21:16:21.000Z,98.50
2017-07-16T21:18:48.599Z,98.50
2017-07-16T21:21:16.375Z,98.50
2017-07-16T21:23:43.972Z,98.60
2017-07-16T21:26:11.591Z,98.70
2017-07-16T21:28:39.191Z,99.20
2017-07-16T21:31:06.803Z,99.20
2017-07-16T21:33:34.374Z,99.80
2017-07-16T21:36:01.966Z,99.90
2017-07-16T21:38:30.334Z,99.90
2017-07-16T21:40:57.899Z,99.90
2017-07-16T21:43:25.628Z,99.90
2017-07-16T21:45:53.761Z,99.90
2017-07-16T21:48:21.530Z,99.90
2017-07-16T21:50:49.167Z,99.90
2017-07-16T21:53:16.805Z,99.90
2017-07-16T21:55:44.396Z,99.90
2017-07-16T21:58:12.743Z,99.90
2017-07-16T22:00:40.335Z,99.90
2017-07-16T22:03:07.920Z,99.90
2017-07-16T22:05:36.263Z,99.90
2017-07-16T22:08:03.840Z,99.90
2017-07-16T22:10:31.446Z,99.90
2017-07-16T22:12:59.005Z,99.90
2017-07-16T22:15:26.592Z,99.90
2017-07-16T22:17:54.198Z,99.90
2017-07-16T22:20:22.547Z,99.90
2017-07-16T22:22:50.122Z,99.90
2017-07-16T22:25:17.731Z,99.90
2017-07-16T22:27:45.290Z,99.90
2017-07-16T22:30:12.885Z,99.90
2017-07-16T22:32:40.474Z,99.90
2017-07-16T22:35:08.659Z,99.90
2017-07-16T22:37:36.237Z,99.90
2017-07-16T22:40:04.576Z,99.90
2017-07-16T22:42:32.177Z,99.90
2017-07-16T22:45:00.661Z,99.90
2017-07-16T22:47:28.267Z,99.90
2017-07-16T22:49:55.895Z,99.90
2017-07-16T22:52:24.249Z,99.90
2017-07-16T22:54:51.899Z,99.90
2017-07-16T22:57:19.468Z,99.90
2017-07-16T22:59:47.085Z,99.90
2017-07-16T23:02:14.659Z,99.90
2017-07-16T23:04:42.231Z,99.90
2017-07-16T23:07:09.855Z,99.90
2017-07-16T23:09:37.438Z,99.90
2017-07-16T23:12:05.025Z,99.90
2017-07-16T23:14:33.405Z,99.90
2017-07-16T23:17:01.061Z,99.90
2017-07-16T23:19:28.671Z,99.90
2017-07-16T23:21:57.034Z,99.90
2017-07-16T23:24:24.597Z,99.90
2017-07-16T23:26:52.325Z,99.90
2017-07-16T23:29:19.912Z,99.90
2017-07-16T23:31:47.475Z,99.90
2017-07-16T23:34:15.061Z,99.90
2017-07-16T23:36:42.649Z,99.90
2017-07-16T23:39:11.028Z,99.90
2017-07-16T23:41:39.352Z,99.90
2017-07-16T23:44:06.947Z,99.90
2017-07-16T23:46:34.512Z,99.90
2017-07-16T23:49:03.143Z,99.90
2017-07-16T23:51:30.748Z,99.90
2017-07-16T23:53:58.318Z,99.90
2017-07-16T23:56:25.927Z,99.90
2017-07-16T23:58:53.504Z,99.90
